Time;durP1;ratioP1;P1;durP2;ratioP2;P2;SDS_P1;SDS_P2;PMS_P1;PMS_P2;Temp;Humidity;BMP_temperature;BMP_pressure;BME280_temperature;BME280_humidity;BME280_pressure;Samples;Min_cycle;Max_cycle;Signal;HPM_P1;HPM_P2
2022/06/20 00:01:25;;;;;;;10.10;3.60;;;;;;;21.00;50.11;99263.06;10400326;28;20045;-83
2022/06/20 00:06:34;;;;;;;12.10;4.20;;;;;;;21.15;50.00;99262.31;10400404;28;20061;-83
2022/06/20 00:11:46;;;;;;;12.43;4.10;;;;;;;20.99;50.42;99245.44;10413337;28;20131;-83
2022/06/20 00:16:49;;;;;;;11.35;3.80;;;;;;;20.90;50.07;99240.34;10400870;28;20059;-83
2022/06/20 00:21:51;;;;;;;12.63;3.60;;;;;;;20.78;50.03;99229.28;10417892;28;20111;-83
2022/06/20 00:26:52;;;;;;;10.52;3.53;;;;;;;20.76;49.88;99233.94;10398615;28;20088;-83
2022/06/20 00:31:54;;;;;;;14.20;3.60;;;;;;;20.88;50.04;99248.50;10399028;28;20065;-83
2022/06/20 00:36:56;;;;;;;12.38;4.03;;;;;;;20.98;49.75;99249.09;10397587;28;20758;-83
2022/06/20 00:42:00;;;;;;;14.55;4.10;;;;;;;21.08;49.64;99254.19;10397227;28;20493;-83
2022/06/20 00:47:10;;;;;;;12.68;4.00;;;;;;;20.80;50.72;99271.63;10396432;28;20103;-83
2022/06/20 00:52:15;;;;;;;;;;;;;;;20.19;51.01;99248.38;10394258;28;20457;-83
2022/06/20 00:57:27;;;;;;;11.05;3.70;;;;;;;20.54;50.00;99255.88;10398012;28;19972;-84
2022/06/20 01:02:33;;;;;;;11.50;3.65;;;;;;;20.52;50.36;99339.44;10404814;28;20054;-83
2022/06/20 01:07:45;;;;;;;11.90;3.17;;;;;;;20.28;50.27;99473.06;10394882;28;20446;-83
2022/06/20 01:13:01;;;;;;;10.50;2.78;;;;;;;19.92;49.76;99538.84;10411516;28;20106;-84
2022/06/20 01:18:05;;;;;;;15.25;2.90;;;;;;;19.76;49.32;99530.81;10403882;28;20077;-83
2022/06/20 01:23:27;;;;;;;20.00;3.33;;;;;;;19.48;48.51;99608.91;10394986;28;20083;-84
2022/06/20 01:28:35;;;;;;;11.23;2.55;;;;;;;19.40;48.92;99604.38;10385295;28;20053;-84
2022/06/20 01:33:37;;;;;;;10.45;2.40;;;;;;;19.35;49.92;99499.75;10393822;28;20550;-83
2022/06/20 01:38:41;;;;;;;9.10;2.30;;;;;;;19.14;51.52;99470.97;10385263;28;20568;-82
2022/06/20 01:43:43;;;;;;;9.23;2.50;;;;;;;19.05;53.61;99477.22;10385117;28;20057;-82
2022/06/20 01:48:52;;;;;;;19.90;3.95;;;;;;;19.00;56.43;99548.38;10396425;28;20174;-82
2022/06/20 01:53:56;;;;;;;19.02;4.28;;;;;;;18.82;55.87;99469.91;10385393;28;20111;-82
2022/06/20 01:59:09;;;;;;;25.20;4.45;;;;;;;16.79;63.16;99354.19;10384912;28;20053;-81
2022/06/20 02:04:15;;;;;;;13.50;4.97;;;;;;;15.83;65.82;99372.78;10388376;28;20084;-82
2022/06/20 02:09:17;;;;;;;171.73;30.40;;;;;;;16.17;68.52;99389.84;10406265;28;20057;-82
2022/06/20 02:14:44;;;;;;;87.55;16.98;;;;;;;16.50;69.37;99371.91;10389877;28;20050;-82
2022/06/20 02:19:50;;;;;;;179.05;32.22;;;;;;;16.75;69.54;99418.81;10389333;28;20132;-82
2022/06/20 02:24:56;;;;;;;33.50;11.05;;;;;;;16.81;69.72;99386.56;10390067;28;20518;-82
2022/06/20 02:30:01;;;;;;;32.20;9.25;;;;;;;16.96;68.88;99363.97;10415598;28;20111;-82
2022/06/20 02:35:06;;;;;;;13.68;4.47;;;;;;;16.77;67.59;99332.38;10402173;28;20053;-82
2022/06/20 02:40:13;;;;;;;13.52;5.63;;;;;;;16.73;68.56;99331.78;10401375;28;20499;-82
2022/06/20 02:45:16;;;;;;;13.18;4.82;;;;;;;17.13;67.97;99349.97;10416701;28;20056;-83
2022/06/20 02:50:22;;;;;;;13.88;4.35;;;;;;;17.27;67.82;99325.69;10400161;28;20494;-83
2022/06/20 02:55:24;;;;;;;14.23;4.72;;;;;;;17.30;67.68;99335.97;10417172;28;20081;-83
2022/06/20 03:00:54;;;;;;;13.80;4.88;;;;;;;17.48;67.88;99315.72;10401139;28;20147;-83
2022/06/20 03:05:56;;;;;;;16.52;4.47;;;;;;;17.57;66.67;99280.44;10400666;28;20573;-83
2022/06/20 03:11:05;;;;;;;17.58;4.55;;;;;;;17.41;65.72;99243.28;10413224;28;20050;-83
2022/06/20 03:16:07;;;;;;;13.07;4.72;;;;;;;17.39;65.02;99217.97;10402739;28;20049;-83
2022/06/20 03:21:09;;;;;;;16.75;4.60;;;;;;;17.08;65.27;99198.97;10419562;28;20045;-82
2022/06/20 03:26:24;;;;;;;11.27;3.97;;;;;;;16.92;66.63;99214.66;10399368;28;20564;-82
2022/06/20 03:31:26;;;;;;;15.50;4.15;;;;;;;17.11;66.39;99200.50;10399291;28;20562;-82
2022/06/20 03:36:28;;;;;;;13.07;3.85;;;;;;;17.08;65.68;99180.50;10401792;28;20088;-83
2022/06/20 03:41:30;;;;;;;15.82;4.47;;;;;;;17.19;66.11;99205.88;10418535;28;20053;-82
2022/06/20 03:46:47;;;;;;;10.98;4.20;;;;;;;17.39;65.27;99196.81;10417704;28;20111;-82
2022/06/20 03:52:01;;;;;;;16.20;3.85;;;;;;;17.19;65.81;99204.06;10418322;28;20045;-82
2022/06/20 04:03:29;;;;;;;9.93;3.30;;;;;;;17.44;66.19;99338.16;10412707;28;20041;-82
2022/06/20 04:14:07;;;;;;;9.18;3.30;;;;;;;17.45;65.85;99511.66;10418612;28;20053;-82
2022/06/20 04:19:20;;;;;;;10.98;3.80;;;;;;;17.22;66.25;99399.28;10402752;28;20050;-82
2022/06/20 04:24:24;;;;;;;12.75;4.43;;;;;;;17.18;65.73;99345.06;10402582;28;20083;-82
2022/06/20 04:29:49;;;;;;;10.63;4.22;;;;;;;17.20;64.93;99308.75;10418096;28;20204;-82
2022/06/20 04:34:59;;;;;;;13.05;5.10;;;;;;;16.91;66.16;99321.31;10416412;28;20112;-82
2022/06/20 04:40:06;;;;;;;;;;;;;;;16.60;67.14;99335.75;10399911;28;20045;-82
2022/06/20 04:45:22;;;;;;;9.13;4.25;;;;;;;17.09;66.93;99345.13;10416127;28;19928;-82
2022/06/20 04:50:32;;;;;;;8.60;3.50;;;;;;;17.39;66.75;99432.91;10401144;28;20127;-82
2022/06/20 04:55:38;;;;;;;11.45;4.25;;;;;;;17.29;66.11;99439.19;10398582;28;20061;-82
2022/06/20 05:00:43;;;;;;;11.75;4.35;;;;;;;17.33;66.59;99452.00;10399020;28;20044;-82
2022/06/20 05:05:48;;;;;;;10.93;4.20;;;;;;;17.38;65.90;99428.63;10398003;28;20469;-82
2022/06/20 05:10:59;;;;;;;9.75;3.72;;;;;;;17.71;66.20;99462.38;10397346;28;21025;-81
2022/06/20 05:16:03;;;;;;;8.38;3.42;;;;;;;17.82;65.88;99480.72;10417810;28;20095;-81
2022/06/20 05:21:17;;;;;;;10.27;3.63;;;;;;;17.87;66.00;99532.34;10400001;28;20139;-82
2022/06/20 05:26:22;;;;;;;8.60;3.67;;;;;;;17.84;65.85;99546.69;10412676;28;20053;-82
2022/06/20 05:31:40;;;;;;;4.68;2.22;;;;;;;17.63;65.26;99522.28;10396693;28;20148;-82
2022/06/20 05:36:44;;;;;;;5.75;2.53;;;;;;;17.55;65.67;99504.50;10394843;28;20119;-82
2022/06/20 05:41:47;;;;;;;4.32;2.30;;;;;;;17.43;64.70;99495.09;10394983;28;20053;-82
2022/06/20 05:46:56;;;;;;;4.40;2.25;;;;;;;17.47;64.97;99451.53;10394232;28;20061;-82
2022/06/20 05:52:00;;;;;;;4.50;2.40;;;;;;;17.47;64.49;99475.31;10393397;28;20067;-82
2022/06/20 05:57:12;;;;;;;3.65;2.30;;;;;;;17.58;63.42;99480.44;10413351;28;20111;-82
2022/06/20 06:02:19;;;;;;;4.93;2.50;;;;;;;17.80;63.08;99489.75;10393987;28;20088;-82
2022/06/20 06:07:41;;;;;;;4.05;2.25;;;;;;;17.91;62.04;99501.97;10409828;28;20046;-82
2022/06/20 06:12:52;;;;;;;5.78;2.47;;;;;;;17.98;63.43;99500.38;10409735;28;20098;-82
2022/06/20 06:18:00;;;;;;;3.92;2.05;;;;;;;17.85;62.63;99490.16;10401609;28;20620;-82
2022/06/20 06:23:08;;;;;;;5.22;2.33;;;;;;;17.80;63.45;99482.66;10406674;28;20084;-82
2022/06/20 06:28:17;;;;;;;6.05;1.80;;;;;;;17.67;62.59;99487.47;10391237;28;20784;-81
2022/06/20 06:33:47;;;;;;;5.87;2.50;;;;;;;17.44;63.83;99458.91;10389129;28;21647;-81
2022/06/20 06:38:58;;;;;;;4.10;2.53;;;;;;;17.32;64.39;99429.19;10366583;28;20151;-82
2022/06/20 06:44:29;;;;;;;4.90;2.80;;;;;;;17.30;64.49;99433.75;10392568;28;20180;-82
2022/06/20 06:49:44;;;;;;;4.03;1.80;;;;;;;17.20;63.57;99440.09;10379378;28;20140;-82
2022/06/20 06:54:51;;;;;;;4.22;2.08;;;;;;;17.14;64.09;99470.53;10384587;28;20116;-82
2022/06/20 07:00:15;;;;;;;4.78;1.98;;;;;;;17.25;62.84;99491.53;10402416;28;20103;-83
2022/06/20 07:05:21;;;;;;;1.85;1.50;;;;;;;17.05;63.40;99482.00;10382933;28;20085;-80
2022/06/20 07:10:44;;;;;;;2.63;1.88;;;;;;;17.18;63.17;99495.69;10384387;28;20049;-79
2022/06/20 07:15:51;;;;;;;3.30;1.80;;;;;;;17.04;62.58;99483.78;10394905;28;20132;-79
2022/06/20 07:20:53;;;;;;;2.97;1.80;;;;;;;16.97;62.27;99489.78;10376119;28;20046;-79
2022/06/20 07:25:56;;;;;;;3.10;2.00;;;;;;;16.99;62.71;99485.19;10382130;28;20057;-80
2022/06/20 07:31:04;;;;;;;3.20;2.10;;;;;;;16.98;62.85;99504.66;10382814;28;20049;-80
2022/06/20 07:36:08;;;;;;;4.20;2.30;;;;;;;16.92;63.13;99536.91;10398623;28;20084;-80
2022/06/20 07:41:17;;;;;;;3.00;2.40;;;;;;;16.98;62.50;99557.50;10382960;28;20490;-80
2022/06/20 07:46:39;;;;;;;3.67;2.47;;;;;;;16.95;62.49;99571.84;10400280;28;20049;-80
2022/06/20 07:51:46;;;;;;;3.85;3.00;;;;;;;17.13;62.68;99557.88;10399566;28;20136;-79
2022/06/20 07:56:56;;;;;;;4.80;2.75;;;;;;;17.54;62.23;99581.34;10382569;28;20585;-80
2022/06/20 08:02:22;;;;;;;5.43;3.80;;;;;;;17.61;63.03;99585.91;10377706;28;20049;-79
2022/06/20 08:07:24;;;;;;;6.28;3.47;;;;;;;17.74;61.52;99606.75;10380456;28;20045;-80
2022/06/20 08:12:37;;;;;;;4.50;3.10;;;;;;;17.51;61.58;99595.66;10377702;28;20046;-80
2022/06/20 08:17:39;;;;;;;4.90;3.50;;;;;;;17.44;62.15;99615.75;10381853;28;20061;-79
2022/06/20 08:22:53;;;;;;;4.40;3.28;;;;;;;17.38;62.62;99624.25;10396481;28;20042;-79
2022/06/20 08:28:10;;;;;;;4.32;3.17;;;;;;;17.50;61.51;99646.91;10378964;28;20123;-79
2022/06/20 08:33:31;;;;;;;5.60;3.08;;;;;;;17.19;61.90;99660.38;10380262;28;20057;-80
2022/06/20 08:39:01;;;;;;;3.70;2.63;;;;;;;17.13;61.83;99671.50;10397405;28;20089;-79
2022/06/20 08:44:26;;;;;;;7.90;2.50;;;;;;;17.07;62.21;99662.34;10381202;28;20107;-79
2022/06/20 08:50:02;;;;;;;3.78;2.30;;;;;;;17.13;61.86;99680.28;10366691;28;20426;-79
2022/06/20 08:55:45;;;;;;;3.00;2.20;;;;;;;17.01;61.06;99700.72;10378222;28;20053;-78
2022/06/20 09:01:21;;;;;;;3.95;2.30;;;;;;;17.03;61.52;99719.09;10367190;28;20056;-80
2022/06/20 09:06:46;;;;;;;3.20;2.30;;;;;;;16.91;61.72;99736.03;10393005;28;20103;-80
2022/06/20 09:12:01;;;;;;;3.60;2.10;;;;;;;16.60;61.71;99750.25;10395775;28;20103;-79
2022/06/20 09:17:40;;;;;;;4.20;2.13;;;;;;;16.60;62.31;99743.19;10394614;28;20072;-79
2022/06/20 09:23:11;;;;;;;4.15;2.10;;;;;;;16.70;61.76;99733.47;10377348;28;20049;-79
2022/06/20 09:28:32;;;;;;;;;;;;;;;16.40;61.82;99743.22;10393777;28;20739;-79
2022/06/20 09:33:51;;;;;;;3.03;1.95;;;;;;;16.80;61.27;99751.97;10395108;28;19972;-79
2022/06/20 09:39:21;;;;;;;3.88;1.90;;;;;;;16.93;61.16;99756.06;10393156;28;20096;-79
2022/06/20 09:44:36;;;;;;;3.33;1.77;;;;;;;17.03;61.23;99758.72;10362803;28;20045;-80
2022/06/20 09:50:07;;;;;;;4.00;1.80;;;;;;;17.10;60.75;99757.19;10376747;28;20086;-79
2022/06/20 09:55:37;;;;;;;3.50;1.75;;;;;;;17.07;60.67;99764.56;10370593;28;20081;-79
2022/06/20 10:01:05;;;;;;;3.63;1.85;;;;;;;16.99;60.08;99781.94;10392704;28;20107;-79
2022/06/20 10:06:10;;;;;;;2.90;2.00;;;;;;;17.03;60.44;99771.91;10374675;28;20071;-79
2022/06/20 10:11:23;;;;;;;4.97;1.80;;;;;;;17.00;59.92;99773.03;10369739;28;20053;-80
2022/06/20 10:16:47;;;;;;;2.90;1.75;;;;;;;16.90;59.92;99793.31;10371541;28;20188;-79
2022/06/20 10:21:56;;;;;;;3.83;1.75;;;;;;;17.01;59.41;99805.56;10381510;28;20053;-79
2022/06/20 10:27:14;;;;;;;3.97;1.80;;;;;;;17.07;58.97;99796.25;10367361;28;20061;-79
2022/06/20 10:32:33;;;;;;;3.95;1.90;;;;;;;17.00;59.73;99825.03;10368388;28;20077;-79
2022/06/20 10:38:09;;;;;;;2.30;1.70;;;;;;;16.96;59.86;99826.25;10382919;28;20045;-79
2022/06/20 10:44:14;;;;;;;4.03;1.50;;;;;;;17.16;58.65;99846.47;10367613;28;20495;-80
2022/06/20 10:49:20;;;;;;;2.60;1.10;;;;;;;17.33;56.92;99868.78;10244176;28;20416;-80
2022/06/20 10:54:58;;;;;;;1.77;1.20;;;;;;;17.17;56.91;99881.69;10353171;28;20103;-79
2022/06/20 11:00:03;;;;;;;2.10;1.10;;;;;;;16.99;55.69;99871.75;10383830;28;20046;-79
2022/06/20 11:05:16;;;;;;;1.60;0.90;;;;;;;16.97;55.78;99886.91;10368957;28;20475;-78
2022/06/20 11:10:22;;;;;;;2.30;1.20;;;;;;;16.98;57.17;99888.56;10366489;28;20483;-79
2022/06/20 11:15:30;;;;;;;2.97;1.15;;;;;;;16.83;56.17;99867.94;10365992;28;20076;-78
2022/06/20 11:20:47;;;;;;;6.20;1.30;;;;;;;16.82;58.13;99872.38;10366388;28;20132;-79
2022/06/20 11:26:07;;;;;;;3.88;1.50;;;;;;;16.61;56.68;99865.47;10368778;28;20080;-79
2022/06/20 11:31:18;;;;;;;2.92;1.30;;;;;;;16.28;58.37;99868.28;10365509;28;20127;-80
2022/06/20 11:36:30;;;;;;;2.80;1.50;;;;;;;16.40;58.91;99859.34;10372937;28;20084;-79
2022/06/20 11:41:55;;;;;;;5.78;1.52;;;;;;;16.19;58.72;99883.09;10376271;28;20053;-79
2022/06/20 11:46:57;;;;;;;2.95;1.40;;;;;;;16.32;57.98;99886.38;10374776;28;20458;-80
2022/06/20 11:52:30;;;;;;;3.42;1.35;;;;;;;16.21;57.95;99902.28;10373947;28;20057;-79
2022/06/20 11:57:42;;;;;;;2.60;1.30;;;;;;;16.11;58.27;99901.38;10374805;28;20065;-79
2022/06/20 12:03:22;;;;;;;4.05;1.55;;;;;;;16.10;57.89;99895.25;10391344;28;20045;-79
2022/06/20 12:08:39;;;;;;;2.72;1.45;;;;;;;15.98;58.17;99924.44;10374421;28;20049;-79
2022/06/20 12:14:04;;;;;;;3.78;1.50;;;;;;;16.14;57.88;99924.88;10371923;28;20115;-79
2022/06/20 12:25:41;;;;;;;4.38;1.60;;;;;;;16.67;56.25;99915.94;10222963;29;20147;-79
2022/06/20 12:30:43;;;;;;;5.60;1.75;;;;;;;16.92;55.19;99925.25;10372402;28;20056;-79
2022/06/20 12:35:55;;;;;;;5.45;2.08;;;;;;;16.86;54.79;99915.22;10387203;28;20107;-79
2022/06/20 12:41:11;;;;;;;4.90;2.05;;;;;;;16.52;54.35;99913.78;10369814;28;20426;-78
2022/06/20 12:46:42;;;;;;;4.55;2.17;;;;;;;16.79;55.90;99928.09;10381785;28;20045;-79
2022/06/20 12:51:59;;;;;;;4.30;2.50;;;;;;;16.95;54.37;99939.06;10358181;28;20052;-77
2022/06/20 12:57:07;;;;;;;4.60;2.60;;;;;;;16.97;54.56;99928.34;10374144;28;20164;-78
2022/06/20 13:08:34;;;;;;;7.63;3.25;;;;;;;17.09;53.32;99902.66;10387443;28;20038;-77
2022/06/20 13:14:20;;;;;;;6.82;3.38;;;;;;;17.24;53.69;99912.72;10383127;28;20089;-78
2022/06/20 13:19:41;;;;;;;4.85;2.78;;;;;;;17.29;53.27;99905.22;10369495;28;20053;-78
2022/06/20 13:25:02;;;;;;;6.95;3.30;;;;;;;17.28;53.42;99898.25;10384705;28;20073;-79
2022/06/20 13:30:29;;;;;;;8.32;3.25;;;;;;;17.22;53.64;99887.41;10372538;28;20066;-79
2022/06/20 13:36:01;;;;;;;6.53;3.33;;;;;;;17.18;53.85;99880.72;10370835;28;20461;-78
2022/06/20 13:41:12;;;;;;;7.35;3.65;;;;;;;17.19;54.09;99892.94;10265047;28;20055;-78
2022/06/20 13:46:28;;;;;;;7.25;3.85;;;;;;;17.04;55.11;99895.13;10389044;28;20057;-78
2022/06/20 13:58:28;;;;;;;9.77;4.20;;;;;;;17.29;53.86;99877.97;10384621;28;20033;-79
2022/06/20 14:03:47;;;;;;;10.00;4.25;;;;;;;17.53;54.73;99879.28;10371619;28;20064;-80
2022/06/20 14:09:15;;;;;;;11.82;4.97;;;;;;;17.71;53.50;99875.00;10368597;28;20899;-78
2022/06/20 14:14:35;;;;;;;7.03;3.63;;;;;;;18.08;53.67;99874.28;10373519;28;20053;-80
2022/06/20 14:19:44;;;;;;;10.20;4.22;;;;;;;18.58;52.14;99881.91;10391991;28;20871;-79
2022/06/20 14:24:52;;;;;;;8.02;4.18;;;;;;;19.07;51.86;99886.13;10374599;28;20046;-79
2022/06/20 14:30:34;;;;;;;8.47;4.20;;;;;;;18.85;50.25;99877.66;10349824;28;20511;-79
2022/06/20 14:36:09;;;;;;;7.45;3.90;;;;;;;18.86;51.75;99880.16;10349389;28;20073;-79
2022/06/20 14:47:27;;;;;;;12.05;3.88;;;;;;;19.48;50.99;99877.63;10351877;28;20093;-80
2022/06/20 14:52:47;;;;;;;6.22;3.67;;;;;;;19.75;48.02;99878.56;10297056;28;20985;-79
2022/06/20 14:58:36;;;;;;;7.25;3.38;;;;;;;19.84;47.96;99886.50;10350524;28;20057;-79
2022/06/20 15:03:59;;;;;;;8.13;3.60;;;;;;;19.62;48.89;99888.72;10323581;28;20045;-80
2022/06/20 15:09:20;;;;;;;9.15;3.63;;;;;;;19.99;48.47;99886.81;10343476;28;20068;-78
2022/06/20 15:14:46;;;;;;;9.82;3.58;;;;;;;20.35;47.41;99866.31;10350137;28;20081;-79
2022/06/20 15:20:13;;;;;;;7.72;3.10;;;;;;;21.19;45.69;99854.88;10342165;28;20104;-80
2022/06/20 15:25:18;;;;;;;7.00;2.92;;;;;;;20.80;46.24;99857.19;10351527;28;20093;-78
2022/06/20 15:30:33;;;;;;;7.32;3.03;;;;;;;20.54;45.72;99845.69;10373882;28;20085;-79
2022/06/20 15:41:16;;;;;;;7.75;2.95;;;;;;;20.39;47.04;99841.97;10397643;28;20045;-79
2022/06/20 15:47:03;;;;;;;7.45;3.10;;;;;;;20.37;45.89;99841.28;10399693;28;20099;-79
2022/06/20 15:52:07;;;;;;;6.25;3.15;;;;;;;20.45;45.87;99830.72;10277175;28;20121;-79
2022/06/20 15:57:12;;;;;;;7.75;2.97;;;;;;;20.55;46.33;99836.75;10381353;28;20080;-79
2022/06/20 16:02:34;;;;;;;10.50;3.40;;;;;;;20.14;47.69;99843.63;10398346;28;20050;-79
2022/06/20 16:07:48;;;;;;;6.95;3.05;;;;;;;20.01;48.48;99840.50;10386335;28;20175;-80
2022/06/20 16:12:54;;;;;;;8.20;3.45;;;;;;;20.19;48.62;99841.31;10378023;28;20080;-79
2022/06/20 16:17:59;;;;;;;9.40;3.15;;;;;;;20.17;48.47;99842.47;10396424;28;20088;-79
2022/06/20 16:23:21;;;;;;;7.10;3.13;;;;;;;20.18;48.74;99831.69;10396717;28;20107;-80
2022/06/20 16:28:27;;;;;;;8.60;3.17;;;;;;;20.28;47.76;99840.38;10376425;28;20065;-80
2022/06/20 16:33:39;;;;;;;8.13;3.17;;;;;;;20.18;48.34;99830.84;10392970;28;20487;-80
2022/06/20 16:38:41;;;;;;;7.63;3.30;;;;;;;20.01;48.80;99829.88;10378659;28;20251;-80
2022/06/20 16:44:01;;;;;;;6.43;3.20;;;;;;;20.08;48.42;99838.06;10393387;28;20108;-80
2022/06/20 16:49:16;;;;;;;7.93;2.97;;;;;;;20.00;48.77;99841.50;10394002;28;20135;-80
2022/06/20 16:54:19;;;;;;;6.30;3.13;;;;;;;19.95;49.46;99838.47;10373807;28;20050;-80
2022/06/20 16:59:25;;;;;;;8.35;3.25;;;;;;;19.82;50.00;99832.72;10373012;28;20049;-80
2022/06/20 17:04:49;;;;;;;11.30;3.60;;;;;;;19.75;50.70;99836.09;10375097;28;20227;-81
2022/06/20 17:10:25;;;;;;;8.02;3.53;;;;;;;19.72;50.53;99825.81;10364406;28;20053;-80
2022/06/20 17:15:50;;;;;;;9.32;3.47;;;;;;;19.76;50.03;99827.16;10367442;28;20045;-79
2022/06/20 17:21:06;;;;;;;7.85;3.30;;;;;;;19.76;50.41;99811.25;10354245;28;20061;-79
2022/06/20 17:26:23;;;;;;;7.88;3.38;;;;;;;19.75;50.04;99812.22;10391019;28;20484;-80
2022/06/20 17:31:58;;;;;;;9.00;3.40;;;;;;;19.78;50.54;99815.41;10389590;28;20053;-80
2022/06/20 17:37:41;;;;;;;8.20;3.40;;;;;;;19.64;49.20;99818.63;10395960;28;20147;-80
2022/06/20 17:43:07;;;;;;;9.45;3.83;;;;;;;19.74;50.80;99807.91;10398338;28;20076;-80
2022/06/20 17:48:24;;;;;;;8.30;3.60;;;;;;;19.67;50.49;99807.69;10398481;28;20057;-79
2022/06/20 17:54:10;;;;;;;9.77;3.50;;;;;;;19.65;50.32;99809.66;10400844;28;20637;-80
2022/06/20 17:59:16;;;;;;;9.25;3.80;;;;;;;19.69;51.02;99820.78;10389187;28;20490;-80
2022/06/20 18:04:34;;;;;;;9.82;3.80;;;;;;;19.64;51.05;99817.78;10400400;28;20053;-80
2022/06/20 18:09:56;;;;;;;7.90;3.60;;;;;;;19.56;51.03;99810.56;10397612;28;20203;-80
2022/06/20 18:15:11;;;;;;;7.45;3.53;;;;;;;19.41;51.43;99812.06;10428610;28;20160;-80
2022/06/20 18:20:25;;;;;;;7.07;3.40;;;;;;;19.34;51.61;99814.50;10406984;28;20053;-80
2022/06/20 18:26:08;;;;;;;11.73;4.28;;;;;;;19.20;51.92;99815.00;10407299;28;20126;-79
2022/06/20 18:31:18;;;;;;;10.35;4.18;;;;;;;19.15;51.80;99817.28;10369875;28;20127;-79
2022/06/20 18:37:06;;;;;;;8.07;3.90;;;;;;;18.98;52.07;99822.50;10409368;28;20083;-81
2022/06/20 18:42:11;;;;;;;10.18;4.20;;;;;;;18.92;51.83;99826.56;10417350;28;20135;-79
2022/06/20 18:47:40;;;;;;;7.20;3.63;;;;;;;18.72;52.53;99829.44;10408801;28;20080;-80
2022/06/20 18:53:09;;;;;;;8.57;3.70;;;;;;;18.51;53.26;99837.59;10411936;28;20049;-80
2022/06/20 18:58:13;;;;;;;9.40;4.20;;;;;;;18.30;53.91;99829.03;10431835;28;20553;-82
2022/06/20 19:03:47;;;;;;;9.00;4.40;;;;;;;18.01;54.39;99836.16;10413619;28;20563;-83
2022/06/20 19:09:12;;;;;;;8.77;4.03;;;;;;;17.85;54.82;99840.19;10431065;28;20509;-83
2022/06/20 19:14:46;;;;;;;10.10;4.32;;;;;;;17.64;55.41;99836.03;10415788;28;20076;-83
2022/06/20 19:20:10;;;;;;;9.90;4.50;;;;;;;17.32;56.54;99853.91;10414049;28;20049;-82
2022/06/20 19:25:14;;;;;;;11.63;5.15;;;;;;;17.18;56.90;99855.09;10414451;28;20076;-82
2022/06/20 19:30:28;;;;;;;11.18;4.40;;;;;;;16.96;57.80;99856.16;10414360;28;20596;-83
2022/06/20 19:35:49;;;;;;;8.60;5.05;;;;;;;16.74;58.75;99866.91;10413384;28;20106;-82
2022/06/20 19:41:01;;;;;;;11.15;5.30;;;;;;;16.59;59.34;99870.06;10429688;28;20086;-82
2022/06/20 19:46:09;;;;;;;12.18;5.47;;;;;;;16.42;59.58;99875.88;10431883;28;20114;-82
2022/06/20 19:51:17;;;;;;;13.30;6.43;;;;;;;16.18;60.53;99884.06;10414238;28;20563;-82
2022/06/20 19:56:20;;;;;;;15.85;6.15;;;;;;;16.09;60.56;99888.31;10434113;28;20057;-82
2022/06/20 20:01:21;;;;;;;16.38;6.47;;;;;;;15.94;60.93;99886.94;10421198;28;20053;-82
2022/06/20 20:06:25;;;;;;;13.73;5.38;;;;;;;15.79;61.00;99887.38;10437607;28;20115;-82
2022/06/20 20:11:32;;;;;;;10.27;6.22;;;;;;;15.70;61.87;99896.00;10437360;28;20071;-82
2022/06/20 20:16:34;;;;;;;10.57;6.25;;;;;;;15.53;61.75;99897.38;10420328;28;20052;-82
2022/06/20 20:21:52;;;;;;;12.60;6.10;;;;;;;15.37;62.67;99889.00;10420579;28;20079;-82
2022/06/20 20:27:01;;;;;;;10.38;6.30;;;;;;;15.39;62.21;99889.69;10419570;28;20068;-82
2022/06/20 20:32:41;;;;;;;11.73;6.28;;;;;;;15.24;63.11;99891.78;10420413;28;20144;-82
2022/06/20 20:37:44;;;;;;;12.82;6.65;;;;;;;15.12;62.88;99884.81;10420293;28;20097;-82
2022/06/20 20:43:01;;;;;;;9.60;7.00;;;;;;;15.03;63.50;99897.91;10419889;28;20055;-82
2022/06/20 20:48:10;;;;;;;14.65;6.85;;;;;;;14.96;63.64;99886.19;10420732;28;20173;-82
2022/06/20 20:53:37;;;;;;;11.40;6.95;;;;;;;14.86;63.96;99895.75;10419509;28;20540;-82
2022/06/20 20:58:52;;;;;;;10.93;6.65;;;;;;;14.70;64.41;99898.72;10434859;28;20045;-82
2022/06/20 21:03:58;;;;;;;9.27;6.60;;;;;;;14.65;64.65;99902.69;10418841;28;20041;-82
2022/06/20 21:09:20;;;;;;;12.77;6.82;;;;;;;14.62;64.87;99902.91;10418271;28;20172;-83
2022/06/20 21:14:28;;;;;;;12.88;7.03;;;;;;;14.68;64.37;99903.28;10419606;28;20084;-82
2022/06/20 21:19:32;;;;;;;12.68;7.05;;;;;;;14.61;64.10;99911.75;10418711;28;20481;-82
2022/06/20 21:24:49;;;;;;;12.18;6.70;;;;;;;14.48;64.08;99923.19;10418871;28;20494;-82
2022/06/20 21:29:52;;;;;;;14.77;6.75;;;;;;;14.33;64.54;99929.59;10413971;28;20119;-83
2022/06/20 21:35:06;;;;;;;13.90;7.22;;;;;;;14.30;65.25;99919.31;10417336;28;20048;-82
2022/06/20 21:40:16;;;;;;;10.25;7.13;;;;;;;14.37;64.52;99924.97;10414661;28;20472;-82
2022/06/20 21:45:30;;;;;;;16.25;7.32;;;;;;;14.32;64.80;99920.06;10413151;28;20111;-82
2022/06/20 21:50:52;;;;;;;18.90;7.38;;;;;;;14.26;64.68;99923.13;10416328;28;20060;-82
2022/06/20 21:56:02;;;;;;;15.05;7.82;;;;;;;14.19;64.29;99924.53;10432522;28;20053;-82
2022/06/20 22:01:04;;;;;;;26.13;8.90;;;;;;;14.06;64.33;99912.44;10415775;28;20080;-82
2022/06/20 22:06:06;;;;;;;13.55;7.97;;;;;;;13.97;64.56;99920.97;10415111;28;20049;-82
2022/06/20 22:11:22;;;;;;;13.15;7.47;;;;;;;13.86;64.95;99916.50;10415251;28;20096;-82
2022/06/20 22:16:50;;;;;;;16.92;7.82;;;;;;;13.83;64.84;99921.16;10415380;28;21047;-82
2022/06/20 22:22:00;;;;;;;13.15;7.70;;;;;;;13.67;64.81;99926.69;10414621;28;20049;-82
2022/06/20 22:27:06;;;;;;;11.35;8.73;;;;;;;13.63;64.67;99925.25;10415253;28;20114;-83
2022/06/20 22:32:13;;;;;;;13.98;9.35;;;;;;;13.33;64.72;99922.16;10414688;28;20106;-82
2022/06/20 22:37:21;;;;;;;12.10;7.78;;;;;;;13.09;64.83;99932.59;10413307;28;20474;-82
2022/06/20 22:42:33;;;;;;;12.23;7.25;;;;;;;13.03;65.34;99930.41;10429410;28;20110;-82
2022/06/20 22:47:35;;;;;;;13.15;6.97;;;;;;;12.94;65.19;99924.00;10414511;28;20076;-82
2022/06/20 22:52:42;;;;;;;12.18;7.30;;;;;;;12.98;65.19;99922.84;10414059;28;20160;-82
2022/06/20 22:58:00;;;;;;;10.77;7.10;;;;;;;12.98;65.20;99924.63;10430983;28;20498;-82
2022/06/20 23:03:16;;;;;;;17.00;9.25;;;;;;;13.01;65.86;99923.56;10431087;28;20605;-82
2022/06/20 23:08:17;;;;;;;150.30;13.27;;;;;;;13.05;65.03;99928.50;10414110;28;20102;-82
2022/06/20 23:13:27;;;;;;;100.28;11.57;;;;;;;13.01;65.47;99927.03;10416874;28;20465;-84
2022/06/20 23:23:51;;;;;;;50.55;11.57;;;;;;;12.99;66.06;99931.56;10432700;28;21135;-84
2022/06/20 23:28:53;;;;;;;21.75;9.80;;;;;;;13.11;65.75;99933.31;10432552;28;20505;-84
2022/06/20 23:33:57;;;;;;;88.38;13.35;;;;;;;13.13;65.66;99930.63;10440567;28;20474;-84
2022/06/20 23:38:58;;;;;;;28.75;10.15;;;;;;;12.93;66.02;99927.59;10423735;28;20048;-83
2022/06/20 23:44:01;;;;;;;75.88;11.60;;;;;;;12.86;66.08;99926.31;10422911;28;20048;-84
2022/06/20 23:49:03;;;;;;;11.38;7.18;;;;;;;12.89;66.38;99927.88;10440154;28;20057;-84
2022/06/20 23:54:04;;;;;;;21.13;9.15;;;;;;;13.01;66.00;99929.66;10439622;28;20052;-84
2022/06/20 23:59:07;;;;;;;22.17;8.68;;;;;;;13.06;65.92;99930.19;10422746;28;20049;-83
